Airfield :
LOGIN :

Register | Disclaimer

   EN    FR    IT 

 










Legend :    VFR   Marginal VFR   IFR   Intensive IFR   Very Intensive IFR
Visi :
Ceiling :
>= 8 km
>= 3000ft
5 to 8 km
1000 to 3000 ft
1500m to 5 km
500 to 1000 ft
800 to 1500m
200 to 500 ft
< 800m
< 200 ft
Symbols :   Thunderstorms  Fog  Heavy snow  Heavy precipitations  Wind > 20 kt
SIGMETs :     Misc.  Thunderstorms  Icing  Turbulence  Mountain Waves  Volcanic Ashes






- Airport Elevation : 6 ft
- IATA code : PSA


LIRP - Galileo Galilei Pisa

CURRENT METAR :
  • 282045Z 29005KT CAVOK 18/15 Q1021 NOSIG

EXPIRED METARs :
  • 282015Z 27006KT CAVOK 18/15 Q1021 NOSIG
  • 281945Z 26005KT CAVOK 19/15 Q1021 NOSIG
  • 281915Z 27005KT CAVOK 20/15 Q1021 NOSIG
  • 281845Z 28007KT CAVOK 20/14 Q1021 NOSIG
  • 281815Z 30006KT CAVOK 21/14 Q1021 NOSIG

TAF TAF LIRP
Valid from the 28 at 18:00 until the 29 at 18:00 UTC


281700Z 2818/2918 29010KT 9999 SCT070
BECMG 2901/2903 08010G20KT 9999 FEW030 BKN080
TEMPO 2903/2907 RA
PROB40
TEMPO 2905/2907 4000 TSRA FEW025CB SCT030
BECMG 2914/2916 05015KT 9999 FEW040



MET'MAP, your aeronautical weather chart ! - Copyright ORBIFLY December 2007 - Disclaimer

ORBIFLY MET'MAP TEAM :

Programming & Development : Alexandra Zaïnal
Concept & original design : Baudouin d'Aumeries
Assistance for programming : Marc-Olivier Méhu
Technical & hardware support : Manuel Goepfert

Contact : metmap@orbifly.com




SOURCES & CREDITS :

   NOAA